Lee's Summit, MO (64065)

9:59 AM CST on December 06, 2016 (GMT -0600)
ASOS_HFM | | Change Station

Elev 1003 ft 38.95 °N, 94.37 °W | Updated 49 minutes ago

Clear
Clear
34 °F
Feels Like 22 °F
N
21
Wind Variable Wind from NNW
Gusts 0.0 mph

Today
High -- | Low -- °F
--% Chance of Precip.
Yesterday
High -- | Low -- °F
Precip. -- in
Pressure 30.05 in
Visibility 10.0 miles
Clouds Clear
Windchill 22 °F
Dew Point 19 °F
Humidity 55%
Rainfall in
Snow Depth Not available.
7:22 AM 4:55 PM
Waxing Crescent, 43% visible
METAR KLXT 061553Z AUTO 32019G25KT 10SM CLR 02/M09 A3002 RMK AO2 PK WND 34028/1504 SLP174 T00171089 TSNO
Pressure 30.05 in
Visibility 10.0 miles
Clouds Clear
Windchill 22 °F
Dew Point 19 °F
Humidity 55%
Rainfall in
Snow Depth Not available.
7:22 AM 4:55 PM
Waxing Crescent, 43% visible
METAR KLXT 061553Z AUTO 32019G25KT 10SM CLR 02/M09 A3002 RMK AO2 PK WND 34028/1504 SLP174 T00171089 TSNO

10-Day Weather Forecast

Almanac

Astronomy

Dec. 06, 2016 Rise Set
Actual Time
Civil Twilight
Nautical Twilight
Astronomical Twilight
Moon
Length of Visible Light
Length of Day
Tomorrow will be .
, % of the Moon is Illuminated

Today's Extremes

State Highs State Lows

Community

WunderPhotos

Upload Photos

1,955,959 photos uploaded!

WunderBlog® & News

Nearby

Air Quality

  Air Quality AQ Index Pollutant
Not available.

Snow Depth

Station Depth Elevation

Earthquake Activity

City Distance Mag. Time & Date
Minimum magnitude displayed is 2.5.

Coastal Water Temperatures

Place Temperature

Stations

Nearby Weather Stations

Station Location Temp. Windchill Dew Point Humidity Wind Precip. Elev Updated Type
                   

Watches & Warnings

There are currently no watches in effect.